createdAt,value
2018-10-09T00:00:33.859Z,10.70
2018-10-09T00:03:02.400Z,10.27
2018-10-09T00:05:30.956Z,9.63
2018-10-09T00:07:59.499Z,10.87
2018-10-09T00:10:28.072Z,10.83
2018-10-09T00:12:56.606Z,10.60
2018-10-09T00:15:25.187Z,11.13
2018-10-09T00:17:53.723Z,16.13
2018-10-09T00:20:26.452Z,12.73
2018-10-09T00:23:00.500Z,9.63
2018-10-09T00:25:29.044Z,9.80
2018-10-09T00:27:57.600Z,11.27
2018-10-09T00:30:26.689Z,13.33
2018-10-09T00:32:55.607Z,9.73
2018-10-09T00:35:24.120Z,14.80
2018-10-09T00:37:52.804Z,13.20
2018-10-09T00:40:21.344Z,10.27
2018-10-09T00:42:49.926Z,10.80
2018-10-09T00:45:18.459Z,10.73
2018-10-09T00:47:47.023Z,10.53
2018-10-09T00:50:15.580Z,23.27
2018-10-09T00:52:44.167Z,25.63
2018-10-09T00:55:12.756Z,22.97
2018-10-09T00:57:41.329Z,23.07
2018-10-09T01:00:09.913Z,19.37
2018-10-09T01:02:38.484Z,23.50
2018-10-09T01:05:07.079Z,17.50
2018-10-09T01:07:35.660Z,20.33
2018-10-09T01:10:04.260Z,20.20
2018-10-09T01:12:32.815Z,20.00
2018-10-09T01:15:01.401Z,18.77
2018-10-09T01:17:29.947Z,20.70
2018-10-09T01:19:58.484Z,14.70
2018-10-09T01:22:27.032Z,14.03
2018-10-09T01:24:55.523Z,17.27
2018-10-09T01:27:24.051Z,17.60
2018-10-09T01:29:52.535Z,20.43
2018-10-09T01:32:21.051Z,13.87
2018-10-09T01:34:49.583Z,15.70
2018-10-09T01:37:18.109Z,15.40
2018-10-09T01:39:46.612Z,17.13
2018-10-09T01:42:15.125Z,17.03
2018-10-09T01:44:43.636Z,15.40
2018-10-09T01:47:12.163Z,18.87
2018-10-09T01:49:40.672Z,16.27
2018-10-09T01:52:09.245Z,16.80
2018-10-09T01:54:37.763Z,17.37
2018-10-09T01:57:06.335Z,14.83
2018-10-09T01:59:34.821Z,12.37
2018-10-09T02:02:03.343Z,12.57
2018-10-09T02:04:31.836Z,12.60
2018-10-09T02:07:00.364Z,10.00
2018-10-09T02:09:28.855Z,10.83
2018-10-09T02:11:57.389Z,11.77
2018-10-09T02:14:25.924Z,10.93
2018-10-09T02:16:54.513Z,11.13
2018-10-09T02:19:22.995Z,9.67
2018-10-09T02:21:51.511Z,11.07
2018-10-09T02:24:20.219Z,10.73
2018-10-09T02:26:48.731Z,16.50
2018-10-09T02:29:17.240Z,12.57
2018-10-09T02:31:45.751Z,13.00
2018-10-09T02:34:14.276Z,13.37
2018-10-09T02:36:42.788Z,12.33
2018-10-09T02:39:12.216Z,12.27
2018-10-09T02:41:40.720Z,15.50
2018-10-09T02:44:09.944Z,14.87
2018-10-09T02:46:38.455Z,13.43
2018-10-09T02:49:07.120Z,15.90
2018-10-09T02:51:35.976Z,13.63
2018-10-09T02:54:04.520Z,14.23
2018-10-09T02:56:33.024Z,13.87
2018-10-09T02:59:01.536Z,15.37
2018-10-09T03:01:30.057Z,13.63
2018-10-09T03:03:58.585Z,13.40
2018-10-09T03:06:27.092Z,11.23
2018-10-09T03:08:55.608Z,13.30
2018-10-09T03:11:24.088Z,10.33
2018-10-09T03:13:52.628Z,16.70
2018-10-09T03:16:21.131Z,10.30
2018-10-09T03:18:49.659Z,9.20
2018-10-09T03:21:18.164Z,10.03
2018-10-09T03:23:46.680Z,10.87
2018-10-09T03:26:15.172Z,11.63
2018-10-09T03:28:43.691Z,8.63
2018-10-09T03:31:12.172Z,9.90
2018-10-09T03:33:40.700Z,12.27
2018-10-09T03:36:09.200Z,12.63
2018-10-09T03:38:38.084Z,11.20
2018-10-09T03:41:07.020Z,15.13
2018-10-09T03:43:35.559Z,13.93
2018-10-09T03:46:04.047Z,11.53
2018-10-09T03:48:32.569Z,12.87
2018-10-09T03:51:01.060Z,10.40
2018-10-09T03:53:29.576Z,16.40
2018-10-09T03:55:58.227Z,11.57
2018-10-09T03:58:26.764Z,11.80
2018-10-09T04:00:55.258Z,11.40
2018-10-09T04:03:23.763Z,9.63
2018-10-09T04:05:52.258Z,14.30
2018-10-09T04:08:20.770Z,9.73
2018-10-09T04:10:49.252Z,12.10
2018-10-09T04:13:17.763Z,12.33
2018-10-09T04:15:46.280Z,8.77
2018-10-09T04:18:14.815Z,9.63
2018-10-09T04:20:43.312Z,11.43
2018-10-09T04:23:11.843Z,17.00
2018-10-09T04:25:40.337Z,13.17
2018-10-09T04:28:08.873Z,10.77
2018-10-09T04:30:37.364Z,14.17
2018-10-09T04:33:05.904Z,10.90
2018-10-09T04:35:34.456Z,14.10
2018-10-09T04:38:02.952Z,14.73
2018-10-09T04:40:31.492Z,16.83
2018-10-09T04:42:59.989Z,20.00
2018-10-09T04:45:29.357Z,14.20
2018-10-09T04:47:59.433Z,19.57
2018-10-09T04:50:27.972Z,19.60
2018-10-09T04:52:56.465Z,19.17
2018-10-09T04:55:25.008Z,17.83
2018-10-09T04:57:53.505Z,22.13
2018-10-09T05:00:22.031Z,18.77
2018-10-09T05:02:50.532Z,20.10
2018-10-09T05:05:19.075Z,19.30
2018-10-09T05:07:47.665Z,14.60
2018-10-09T05:10:16.240Z,12.10
2018-10-09T05:12:44.747Z,11.53
2018-10-09T05:15:13.309Z,18.20
2018-10-09T05:17:41.835Z,12.00
2018-10-09T05:20:11.035Z,20.20
2018-10-09T05:22:39.900Z,13.80
2018-10-09T05:25:08.619Z,10.53
2018-10-09T05:27:37.267Z,10.50
2018-10-09T05:30:05.863Z,17.27
2018-10-09T05:32:34.392Z,18.60
2018-10-09T05:35:02.924Z,17.60
2018-10-09T05:37:31.469Z,12.67
2018-10-09T05:39:59.995Z,11.70
2018-10-09T05:42:28.480Z,12.67
2018-10-09T05:44:57.011Z,12.77
2018-10-09T05:47:25.512Z,12.57
2018-10-09T05:49:54.083Z,11.33
2018-10-09T05:52:22.586Z,15.23
2018-10-09T05:54:51.098Z,9.73
2018-10-09T05:57:19.595Z,10.13
2018-10-09T05:59:48.104Z,11.63
2018-10-09T06:02:16.635Z,9.93
2018-10-09T06:04:45.161Z,12.43
2018-10-09T06:07:13.643Z,11.57
2018-10-09T06:09:42.167Z,11.60
2018-10-09T06:12:10.695Z,12.77
2018-10-09T06:14:39.273Z,12.73
2018-10-09T06:17:07.763Z,13.70
2018-10-09T06:19:36.292Z,12.27
2018-10-09T06:22:04.818Z,11.00
2018-10-09T06:24:33.375Z,14.90
2018-10-09T06:27:01.900Z,8.30
2018-10-09T06:29:30.439Z,9.63
2018-10-09T06:31:59.185Z,9.27
2018-10-09T06:34:27.773Z,8.63
2018-10-09T06:36:56.275Z,8.33
2018-10-09T06:39:24.805Z,7.43
2018-10-09T06:41:53.368Z,7.07
2018-10-09T06:44:21.950Z,8.03
2018-10-09T06:46:50.493Z,7.60
2018-10-09T06:49:19.022Z,10.20
2018-10-09T06:51:47.544Z,7.30
2018-10-09T06:54:16.096Z,8.10
2018-10-09T06:56:44.596Z,7.87
2018-10-09T06:59:13.104Z,6.33
2018-10-09T07:01:41.631Z,6.80
2018-10-09T07:04:10.145Z,6.57
2018-10-09T07:06:38.665Z,6.27
2018-10-09T07:09:09.716Z,9.70
2018-10-09T07:11:38.278Z,6.63
2018-10-09T07:14:06.818Z,7.30
2018-10-09T07:16:35.611Z,9.27
2018-10-09T07:19:04.171Z,6.03
2018-10-09T07:21:32.675Z,6.63
2018-10-09T07:24:01.207Z,6.30
2018-10-09T07:26:29.751Z,7.10
2018-10-09T07:28:58.496Z,6.80
2018-10-09T07:31:27.009Z,6.23
2018-10-09T07:33:55.767Z,7.43
2018-10-09T07:36:24.278Z,5.93
2018-10-09T07:38:52.776Z,6.90
2018-10-09T07:41:21.304Z,5.63
2018-10-09T07:43:49.826Z,4.90
2018-10-09T07:46:18.331Z,5.73
2018-10-09T07:48:46.806Z,5.67
2018-10-09T07:51:15.320Z,5.90
2018-10-09T07:53:43.813Z,5.47
2018-10-09T07:56:12.324Z,5.97
2018-10-09T07:58:40.847Z,6.20
2018-10-09T08:01:09.601Z,6.27
2018-10-09T08:03:38.112Z,5.60
2018-10-09T08:06:06.666Z,6.43
2018-10-09T08:08:35.151Z,6.03
2018-10-09T08:11:03.707Z,5.77
2018-10-09T08:13:32.192Z,6.20
2018-10-09T08:16:00.755Z,6.00
2018-10-09T08:18:29.285Z,6.30
2018-10-09T08:20:57.808Z,8.80
2018-10-09T08:23:26.310Z,5.53
2018-10-09T08:25:54.827Z,5.20
2018-10-09T08:28:23.374Z,5.73
2018-10-09T08:30:51.865Z,5.60
2018-10-09T08:33:20.360Z,6.13
2018-10-09T08:35:48.870Z,6.30
2018-10-09T08:38:17.376Z,7.63
2018-10-09T08:40:45.898Z,7.97
2018-10-09T08:43:14.395Z,6.10
2018-10-09T08:45:42.932Z,7.07
2018-10-09T08:48:11.419Z,7.57
2018-10-09T08:50:39.936Z,6.70
2018-10-09T08:53:08.440Z,7.10
2018-10-09T08:55:36.979Z,8.67
2018-10-09T08:58:05.656Z,7.80
2018-10-09T09:00:34.164Z,6.73
2018-10-09T09:03:02.712Z,7.90
2018-10-09T09:05:31.201Z,9.03
2018-10-09T09:07:59.718Z,7.77
2018-10-09T09:10:28.214Z,7.07
2018-10-09T09:12:56.732Z,7.03
2018-10-09T09:15:25.335Z,8.17
2018-10-09T09:17:53.792Z,8.97
2018-10-09T09:20:22.329Z,9.30
2018-10-09T09:22:50.823Z,10.30
2018-10-09T09:25:19.331Z,8.97
2018-10-09T09:27:47.921Z,9.10
2018-10-09T09:30:16.407Z,10.70
2018-10-09T09:32:44.907Z,8.97
2018-10-09T09:35:13.400Z,9.17
2018-10-09T09:37:41.920Z,10.60
2018-10-09T09:40:10.425Z,11.00
2018-10-09T09:42:38.964Z,9.67
2018-10-09T09:45:08.119Z,9.23
2018-10-09T09:47:36.663Z,8.97
2018-10-09T09:50:05.440Z,9.43
2018-10-09T09:52:33.956Z,9.80
2018-10-09T09:55:02.440Z,9.43
2018-10-09T09:57:30.964Z,8.77
2018-10-09T09:59:59.457Z,10.40
2018-10-09T10:02:27.955Z,9.90
2018-10-09T10:04:56.460Z,7.47
2018-10-09T10:07:24.997Z,10.10
2018-10-09T10:09:53.480Z,8.87
2018-10-09T10:12:21.988Z,8.93
2018-10-09T10:14:50.504Z,10.63
2018-10-09T10:17:19.027Z,9.57
2018-10-09T10:19:47.557Z,10.23
2018-10-09T10:22:16.081Z,9.47
2018-10-09T10:24:44.573Z,13.57
2018-10-09T10:27:13.090Z,13.60
2018-10-09T10:29:41.585Z,14.77
2018-10-09T10:32:10.099Z,11.93
2018-10-09T10:34:38.603Z,13.30
2018-10-09T10:37:07.207Z,16.83
2018-10-09T10:39:35.704Z,14.13
2018-10-09T10:42:04.246Z,12.77
2018-10-09T10:44:32.761Z,16.47
2018-10-09T10:47:01.284Z,15.63
2018-10-09T10:49:29.784Z,14.77
2018-10-09T10:51:58.288Z,15.73
2018-10-09T10:54:26.825Z,12.87
2018-10-09T10:56:55.320Z,17.67
2018-10-09T10:59:23.844Z,13.73
2018-10-09T11:01:52.360Z,13.83
2018-10-09T11:04:20.903Z,15.53
2018-10-09T11:06:49.392Z,15.03
2018-10-09T11:09:17.952Z,12.57
2018-10-09T11:11:46.487Z,13.07
2018-10-09T11:14:15.042Z,12.03
2018-10-09T11:16:43.559Z,11.50
2018-10-09T11:19:12.098Z,12.73
2018-10-09T11:21:40.608Z,12.50
2018-10-09T11:24:09.225Z,11.27
2018-10-09T11:26:37.744Z,14.83
2018-10-09T11:29:06.325Z,11.27
2018-10-09T11:31:34.829Z,11.27
2018-10-09T11:34:03.373Z,11.20
2018-10-09T11:36:31.922Z,11.27
2018-10-09T11:39:00.441Z,12.80
2018-10-09T11:41:28.956Z,10.27
2018-10-09T11:43:57.505Z,15.20
2018-10-09T11:46:26.000Z,15.73
2018-10-09T11:48:54.528Z,13.80
2018-10-09T11:51:23.024Z,12.13
2018-10-09T11:53:51.552Z,12.67
2018-10-09T11:56:20.059Z,13.20
2018-10-09T11:58:48.595Z,16.27
2018-10-09T12:01:17.127Z,10.90
2018-10-09T12:03:45.643Z,11.80
2018-10-09T12:06:14.182Z,12.13
2018-10-09T12:08:42.717Z,12.77
2018-10-09T12:11:11.233Z,11.70
2018-10-09T12:13:39.757Z,12.93
2018-10-09T12:16:08.291Z,11.80
2018-10-09T12:18:36.816Z,12.83
2018-10-09T12:21:05.332Z,12.07
2018-10-09T12:23:34.229Z,10.50
2018-10-09T12:26:02.766Z,9.77
2018-10-09T12:28:31.311Z,10.83
2018-10-09T12:30:59.856Z,10.83
2018-10-09T12:33:28.397Z,12.23
2018-10-09T12:35:56.894Z,10.43
2018-10-09T12:38:25.497Z,12.83
2018-10-09T12:40:53.936Z,10.07
2018-10-09T12:43:22.443Z,14.00
2018-10-09T12:45:50.924Z,10.40
2018-10-09T12:48:19.404Z,14.60
2018-10-09T12:50:47.912Z,10.90
2018-10-09T12:53:16.412Z,12.03
2018-10-09T12:55:44.931Z,12.63
2018-10-09T12:58:13.431Z,10.13
2018-10-09T13:00:41.939Z,10.33
2018-10-09T13:03:10.608Z,9.87
2018-10-09T13:05:38.970Z,9.80
2018-10-09T13:08:07.492Z,11.53
2018-10-09T13:10:36.013Z,12.43
2018-10-09T13:13:04.512Z,9.10
2018-10-09T13:15:33.058Z,9.60
2018-10-09T13:18:01.538Z,9.87
2018-10-09T13:20:30.061Z,10.97
2018-10-09T13:22:58.618Z,9.53
2018-10-09T13:25:27.115Z,10.37
2018-10-09T13:27:55.639Z,10.67
2018-10-09T13:30:24.502Z,8.47
2018-10-09T13:32:53.000Z,8.40
2018-10-09T13:35:21.520Z,9.83
2018-10-09T13:37:50.284Z,8.13
2018-10-09T13:40:19.053Z,7.60
2018-10-09T13:42:47.783Z,7.77
2018-10-09T13:45:16.529Z,7.37
2018-10-09T13:47:51.512Z,6.40
2018-10-09T13:50:20.393Z,7.03
2018-10-09T13:52:49.133Z,6.30
2018-10-09T13:55:18.085Z,9.53
2018-10-09T13:57:46.730Z,12.63
2018-10-09T14:00:15.301Z,6.40
2018-10-09T14:02:43.745Z,7.03
2018-10-09T14:05:12.679Z,9.60
2018-10-09T14:07:41.176Z,5.97
2018-10-09T14:10:09.764Z,6.07
2018-10-09T14:12:38.232Z,7.03
2018-10-09T14:15:06.855Z,7.57
2018-10-09T14:17:35.592Z,8.07
2018-10-09T14:20:04.247Z,8.13
2018-10-09T14:22:32.797Z,8.13
2018-10-09T14:25:01.592Z,7.20
2018-10-09T14:27:30.126Z,6.27
2018-10-09T14:29:59.017Z,7.50
2018-10-09T14:32:27.689Z,7.03
2018-10-09T14:34:56.775Z,6.83
2018-10-09T14:37:25.548Z,7.13
2018-10-09T14:39:54.297Z,7.00
2018-10-09T14:42:23.049Z,9.70
2018-10-09T14:44:51.905Z,9.20
2018-10-09T14:47:21.094Z,7.87
2018-10-09T14:49:49.975Z,7.43
2018-10-09T14:52:18.748Z,9.53
2018-10-09T14:54:47.515Z,8.07
2018-10-09T14:57:16.256Z,9.10
2018-10-09T14:59:45.061Z,9.27
2018-10-09T15:02:13.865Z,11.57
2018-10-09T15:04:42.627Z,8.37
2018-10-09T15:07:11.424Z,7.83
2018-10-09T15:09:40.189Z,8.43
2018-10-09T15:12:08.963Z,10.83
2018-10-09T15:14:37.689Z,8.27
2018-10-09T15:17:06.294Z,8.67
2018-10-09T15:19:34.737Z,9.27
2018-10-09T15:22:03.257Z,8.10
2018-10-09T15:24:31.736Z,7.63
2018-10-09T15:27:00.272Z,7.87
2018-10-09T15:29:28.748Z,8.00
2018-10-09T15:31:57.308Z,9.90
2018-10-09T15:34:25.775Z,8.53
2018-10-09T15:36:54.296Z,9.20
2018-10-09T15:39:22.789Z,9.10
2018-10-09T15:41:51.324Z,8.47
2018-10-09T15:44:19.811Z,8.63
2018-10-09T15:46:48.374Z,8.90
2018-10-09T15:49:16.897Z,13.30
2018-10-09T15:51:45.408Z,9.33
2018-10-09T15:54:13.913Z,9.00
2018-10-09T15:56:42.506Z,8.30
2018-10-09T15:59:11.077Z,9.47
2018-10-09T16:01:39.584Z,8.17
2018-10-09T16:04:08.129Z,8.57
2018-10-09T16:06:36.684Z,8.57
2018-10-09T16:09:07.429Z,8.27
2018-10-09T16:11:35.962Z,8.90
2018-10-09T16:14:04.501Z,10.80
2018-10-09T16:16:33.010Z,9.77
2018-10-09T16:19:01.492Z,10.73
2018-10-09T16:21:30.020Z,11.17
2018-10-09T16:23:58.512Z,11.23
2018-10-09T16:26:27.047Z,11.63
2018-10-09T16:28:55.515Z,9.77
2018-10-09T16:31:24.044Z,9.07
2018-10-09T16:33:52.527Z,9.67
2018-10-09T16:36:21.063Z,12.20
2018-10-09T16:38:49.545Z,9.67
2018-10-09T16:41:18.060Z,13.13
2018-10-09T16:43:46.532Z,10.23
2018-10-09T16:46:15.081Z,14.90
2018-10-09T16:48:43.585Z,12.67
2018-10-09T16:51:12.100Z,10.90
2018-10-09T16:53:40.592Z,12.00
2018-10-09T16:56:09.157Z,11.20
2018-10-09T16:58:37.640Z,13.93
2018-10-09T17:01:06.210Z,11.13
2018-10-09T17:03:34.721Z,11.87
2018-10-09T17:06:03.252Z,16.97
2018-10-09T17:08:31.757Z,14.93
2018-10-09T17:11:00.240Z,12.77
2018-10-09T17:13:28.756Z,14.00
2018-10-09T17:15:57.260Z,12.73
2018-10-09T17:18:25.768Z,14.70
2018-10-09T17:20:54.247Z,12.40
2018-10-09T17:23:22.784Z,15.57
2018-10-09T17:25:51.287Z,14.40
2018-10-09T17:28:19.811Z,14.63
2018-10-09T17:30:48.308Z,16.43
2018-10-09T17:33:16.896Z,14.40
2018-10-09T17:35:45.364Z,16.30
2018-10-09T17:38:13.889Z,14.60
2018-10-09T17:40:42.367Z,12.67
2018-10-09T17:43:10.892Z,18.97
2018-10-09T17:45:39.396Z,14.73
2018-10-09T17:48:07.913Z,14.40
2018-10-09T17:50:36.423Z,16.33
2018-10-09T17:53:04.943Z,18.90
2018-10-09T17:55:33.460Z,14.47
2018-10-09T17:58:02.099Z,16.77
2018-10-09T18:00:30.660Z,13.73
2018-10-09T18:02:59.390Z,17.27
2018-10-09T18:05:28.749Z,12.73
2018-10-09T18:07:57.324Z,17.33
2018-10-09T18:10:25.957Z,14.83
2018-10-09T18:12:54.500Z,19.07
2018-10-09T18:15:23.116Z,16.97
2018-10-09T18:17:51.629Z,16.00
2018-10-09T18:20:20.334Z,18.30
2018-10-09T18:22:48.824Z,16.77
2018-10-09T18:25:17.306Z,18.90
2018-10-09T18:27:45.912Z,18.27
2018-10-09T18:30:14.425Z,18.07
2018-10-09T18:32:43.068Z,18.07
2018-10-09T18:35:11.516Z,18.33
2018-10-09T18:37:40.044Z,15.93
2018-10-09T18:40:08.563Z,19.20
2018-10-09T18:42:37.126Z,15.13
2018-10-09T18:45:05.713Z,17.20
2018-10-09T18:47:42.001Z,15.83
2018-10-09T18:50:11.159Z,16.17
2018-10-09T18:52:40.425Z,21.40
2018-10-09T18:55:10.768Z,15.93
2018-10-09T18:57:39.347Z,15.47
2018-10-09T19:00:08.897Z,18.87
2018-10-09T19:02:37.813Z,21.27
2018-10-09T19:05:07.064Z,20.50
2018-10-09T19:07:35.808Z,24.70
2018-10-09T19:10:04.395Z,20.63
2018-10-09T19:12:32.923Z,16.73
2018-10-09T19:15:01.464Z,18.17
2018-10-09T19:17:29.996Z,17.73
2018-10-09T19:19:58.526Z,17.33
2018-10-09T19:22:27.044Z,15.67
2018-10-09T19:24:55.560Z,14.10
2018-10-09T19:27:24.053Z,13.63
2018-10-09T19:29:52.564Z,16.87
2018-10-09T19:32:21.127Z,14.50
2018-10-09T19:34:49.645Z,14.70
2018-10-09T19:37:18.128Z,16.30
2018-10-09T19:39:46.688Z,13.80
2018-10-09T19:42:15.278Z,13.97
2018-10-09T19:44:43.871Z,17.17
2018-10-09T19:47:12.440Z,15.23
2018-10-09T19:49:40.981Z,18.30
2018-10-09T19:52:09.460Z,18.83
2018-10-09T19:54:37.973Z,18.30
2018-10-09T19:57:06.495Z,16.30
2018-10-09T19:59:34.992Z,16.47
2018-10-09T20:02:03.515Z,17.03
2018-10-09T20:04:32.203Z,20.50
2018-10-09T20:07:00.812Z,19.70
2018-10-09T20:09:29.900Z,17.43
2018-10-09T20:11:58.423Z,19.67
2018-10-09T20:14:26.956Z,17.93
2018-10-09T20:16:55.443Z,15.17
2018-10-09T20:19:24.095Z,19.77
2018-10-09T20:21:52.659Z,19.60
2018-10-09T20:24:21.360Z,16.77
2018-10-09T20:26:49.837Z,17.87
2018-10-09T20:29:18.359Z,17.60
2018-10-09T20:31:46.941Z,24.60
2018-10-09T20:34:15.474Z,18.90
2018-10-09T20:36:43.964Z,19.27
2018-10-09T20:39:12.617Z,18.17
2018-10-09T20:41:41.131Z,16.73
2018-10-09T20:44:09.849Z,14.07
2018-10-09T20:46:38.630Z,17.33
2018-10-09T20:49:07.145Z,22.30
2018-10-09T20:51:42.444Z,18.13
2018-10-09T20:54:11.193Z,17.63
2018-10-09T20:56:39.885Z,21.30
2018-10-09T20:59:08.404Z,18.40
2018-10-09T21:01:36.911Z,20.00
2018-10-09T21:04:05.523Z,19.37
2018-10-09T21:06:34.008Z,20.33
2018-10-09T21:09:02.638Z,21.23
2018-10-09T21:11:31.381Z,17.80
2018-10-09T21:13:59.900Z,18.60
2018-10-09T21:16:28.396Z,21.83
2018-10-09T21:18:56.904Z,17.20
2018-10-09T21:21:25.587Z,18.83
2018-10-09T21:23:54.250Z,18.50
2018-10-09T21:26:22.739Z,21.60
2018-10-09T21:28:51.256Z,17.27
2018-10-09T21:31:19.744Z,19.33
2018-10-09T21:33:48.272Z,20.53
2018-10-09T21:36:17.373Z,19.60
2018-10-09T21:38:45.959Z,19.27
2018-10-09T21:41:14.505Z,20.33
2018-10-09T21:43:43.016Z,19.07
2018-10-09T21:46:11.577Z,22.07
2018-10-09T21:48:40.091Z,23.87
2018-10-09T21:51:08.610Z,24.07
2018-10-09T21:53:37.109Z,21.13
2018-10-09T21:56:05.821Z,17.33
2018-10-09T21:58:34.472Z,17.17
2018-10-09T22:01:08.298Z,20.87
2018-10-09T22:03:36.854Z,17.27
2018-10-09T22:06:05.485Z,18.90
2018-10-09T22:08:33.973Z,17.87
2018-10-09T22:11:02.645Z,17.70
2018-10-09T22:13:31.300Z,19.67
2018-10-09T22:16:00.025Z,20.43
2018-10-09T22:18:28.590Z,21.13
2018-10-09T22:20:57.200Z,22.63
2018-10-09T22:23:25.688Z,16.13
2018-10-09T22:25:54.338Z,16.13
2018-10-09T22:28:22.844Z,20.93
2018-10-09T22:30:51.429Z,22.43
2018-10-09T22:33:19.914Z,20.80
2018-10-09T22:35:48.672Z,19.37
2018-10-09T22:38:17.174Z,18.00
2018-10-09T22:40:45.823Z,16.47
2018-10-09T22:43:14.440Z,18.90
2018-10-09T22:45:42.996Z,17.20
2018-10-09T22:48:11.599Z,16.73
2018-10-09T22:50:40.152Z,18.53
2018-10-09T22:53:08.952Z,15.93
2018-10-09T22:55:37.602Z,17.27
2018-10-09T22:58:06.428Z,16.90
2018-10-09T23:00:35.187Z,17.27
2018-10-09T23:03:03.827Z,16.83
2018-10-09T23:05:32.329Z,18.10
2018-10-09T23:08:00.929Z,16.43
2018-10-09T23:33:15.796Z,18.07
2018-10-09T23:35:44.319Z,18.73
2018-10-09T23:38:12.803Z,21.70
2018-10-09T23:40:41.323Z,18.07
2018-10-09T23:43:09.925Z,21.10
2018-10-09T23:45:38.434Z,18.33
2018-10-09T23:48:09.955Z,22.27
2018-10-09T23:50:40.205Z,20.57
2018-10-09T23:53:09.104Z,19.00
2018-10-09T23:55:37.886Z,18.80
2018-10-09T23:58:06.899Z,21.00
